sensor_id;sensor_type;location;lat;lon;timestamp;temperature;humidity
10263;DHT22;5177;50.068;8.156;2023-03-01T00:00:46;1.30;99.90
10263;DHT22;5177;50.068;8.156;2023-03-01T00:03:12;1.30;99.90
10263;DHT22;5177;50.068;8.156;2023-03-01T00:05:43;1.30;99.90
10263;DHT22;5177;50.068;8.156;2023-03-01T00:08:08;1.30;99.90
10263;DHT22;5177;50.068;8.156;2023-03-01T00:10:34;1.30;99.90
10263;DHT22;5177;50.068;8.156;2023-03-01T00:12:59;1.30;99.90
10263;DHT22;5177;50.068;8.156;2023-03-01T00:15:25;1.30;99.90
10263;DHT22;5177;50.068;8.156;2023-03-01T00:17:50;1.30;99.90
10263;DHT22;5177;50.068;8.156;2023-03-01T00:20:15;1.30;99.90
10263;DHT22;5177;50.068;8.156;2023-03-01T00:22:41;1.30;99.90
10263;DHT22;5177;50.068;8.156;2023-03-01T00:25:07;1.30;99.90
10263;DHT22;5177;50.068;8.156;2023-03-01T00:27:33;1.20;99.90
10263;DHT22;5177;50.068;8.156;2023-03-01T00:29:58;1.20;99.90
10263;DHT22;5177;50.068;8.156;2023-03-01T00:32:23;1.20;99.90
10263;DHT22;5177;50.068;8.156;2023-03-01T00:34:49;1.20;99.90
10263;DHT22;5177;50.068;8.156;2023-03-01T00:37:21;1.20;99.90
10263;DHT22;5177;50.068;8.156;2023-03-01T00:39:46;1.20;99.90
10263;DHT22;5177;50.068;8.156;2023-03-01T00:42:12;1.20;99.90
10263;DHT22;5177;50.068;8.156;2023-03-01T00:44:37;1.20;99.90
10263;DHT22;5177;50.068;8.156;2023-03-01T00:47:03;1.20;99.90
10263;DHT22;5177;50.068;8.156;2023-03-01T00:49:28;1.20;99.90
10263;DHT22;5177;50.068;8.156;2023-03-01T00:51:54;1.30;99.90
10263;DHT22;5177;50.068;8.156;2023-03-01T00:54:19;1.30;99.90
10263;DHT22;5177;50.068;8.156;2023-03-01T00:56:45;1.30;99.90
10263;DHT22;5177;50.068;8.156;2023-03-01T00:59:10;1.30;99.90
10263;DHT22;5177;50.068;8.156;2023-03-01T01:01:36;1.30;99.90
10263;DHT22;5177;50.068;8.156;2023-03-01T01:04:05;1.30;99.90
10263;DHT22;5177;50.068;8.156;2023-03-01T01:06:32;1.30;99.90
10263;DHT22;5177;50.068;8.156;2023-03-01T01:08:58;1.20;99.90
10263;DHT22;5177;50.068;8.156;2023-03-01T01:11:25;1.20;99.90
10263;DHT22;5177;50.068;8.156;2023-03-01T01:13:51;1.10;99.90
10263;DHT22;5177;50.068;8.156;2023-03-01T01:16:17;1.10;99.90
10263;DHT22;5177;50.068;8.156;2023-03-01T01:18:43;1.20;99.90
10263;DHT22;5177;50.068;8.156;2023-03-01T01:21:10;1.20;99.90
10263;DHT22;5177;50.068;8.156;2023-03-01T01:23:37;1.10;99.90
10263;DHT22;5177;50.068;8.156;2023-03-01T01:26:13;1.10;99.90
10263;DHT22;5177;50.068;8.156;2023-03-01T01:28:39;1.10;99.90
10263;DHT22;5177;50.068;8.156;2023-03-01T01:31:05;1.10;99.90
10263;DHT22;5177;50.068;8.156;2023-03-01T01:33:31;1.10;99.90
10263;DHT22;5177;50.068;8.156;2023-03-01T01:35:56;1.10;99.90
10263;DHT22;5177;50.068;8.156;2023-03-01T01:38:23;1.10;99.90
10263;DHT22;5177;50.068;8.156;2023-03-01T01:40:49;1.10;99.90
10263;DHT22;5177;50.068;8.156;2023-03-01T01:43:19;1.10;99.90
10263;DHT22;5177;50.068;8.156;2023-03-01T01:45:45;1.00;99.90
10263;DHT22;5177;50.068;8.156;2023-03-01T01:48:12;1.00;99.90
10263;DHT22;5177;50.068;8.156;2023-03-01T01:50:39;1.00;99.90
10263;DHT22;5177;50.068;8.156;2023-03-01T01:53:07;1.00;99.90
10263;DHT22;5177;50.068;8.156;2023-03-01T01:55:34;1.00;99.90
10263;DHT22;5177;50.068;8.156;2023-03-01T01:58:02;1.00;99.90
10263;DHT22;5177;50.068;8.156;2023-03-01T02:00:29;1.00;99.90
10263;DHT22;5177;50.068;8.156;2023-03-01T02:02:56;1.00;99.90
10263;DHT22;5177;50.068;8.156;2023-03-01T02:07:54;1.00;99.90
10263;DHT22;5177;50.068;8.156;2023-03-01T02:10:22;1.00;99.90
10263;DHT22;5177;50.068;8.156;2023-03-01T02:12:48;1.00;99.90
10263;DHT22;5177;50.068;8.156;2023-03-01T02:15:14;1.10;99.90
10263;DHT22;5177;50.068;8.156;2023-03-01T02:17:39;1.00;99.90
10263;DHT22;5177;50.068;8.156;2023-03-01T02:22:50;1.10;99.90
10263;DHT22;5177;50.068;8.156;2023-03-01T02:30:09;1.00;99.90
10263;DHT22;5177;50.068;8.156;2023-03-01T02:32:38;1.00;99.90
10263;DHT22;5177;50.068;8.156;2023-03-01T02:35:10;1.10;99.90
10263;DHT22;5177;50.068;8.156;2023-03-01T02:37:37;1.10;99.90
10263;DHT22;5177;50.068;8.156;2023-03-01T02:40:04;1.10;99.90
10263;DHT22;5177;50.068;8.156;2023-03-01T02:42:31;1.10;99.90
10263;DHT22;5177;50.068;8.156;2023-03-01T02:44:59;1.10;99.90
10263;DHT22;5177;50.068;8.156;2023-03-01T02:47:24;1.20;99.90
10263;DHT22;5177;50.068;8.156;2023-03-01T02:49:49;1.20;99.90
10263;DHT22;5177;50.068;8.156;2023-03-01T02:52:22;1.20;99.90
10263;DHT22;5177;50.068;8.156;2023-03-01T02:57:14;1.20;99.90
10263;DHT22;5177;50.068;8.156;2023-03-01T02:59:40;1.30;99.90
10263;DHT22;5177;50.068;8.156;2023-03-01T03:02:25;1.30;99.90
10263;DHT22;5177;50.068;8.156;2023-03-01T03:05:10;1.30;99.90
10263;DHT22;5177;50.068;8.156;2023-03-01T03:07:37;1.40;99.90
10263;DHT22;5177;50.068;8.156;2023-03-01T03:10:03;1.40;99.90
10263;DHT22;5177;50.068;8.156;2023-03-01T03:12:29;1.40;99.90
10263;DHT22;5177;50.068;8.156;2023-03-01T03:14:54;1.40;99.90
10263;DHT22;5177;50.068;8.156;2023-03-01T03:17:20;1.30;99.90
10263;DHT22;5177;50.068;8.156;2023-03-01T03:19:45;1.40;99.90
10263;DHT22;5177;50.068;8.156;2023-03-01T03:22:11;1.40;99.90
10263;DHT22;5177;50.068;8.156;2023-03-01T03:24:37;1.40;99.90
10263;DHT22;5177;50.068;8.156;2023-03-01T03:27:06;1.40;99.90
10263;DHT22;5177;50.068;8.156;2023-03-01T03:29:31;1.30;99.90
10263;DHT22;5177;50.068;8.156;2023-03-01T03:31:57;1.30;99.90
10263;DHT22;5177;50.068;8.156;2023-03-01T03:34:22;1.20;99.90
10263;DHT22;5177;50.068;8.156;2023-03-01T03:36:52;1.30;99.90
10263;DHT22;5177;50.068;8.156;2023-03-01T03:39:22;1.20;99.90
10263;DHT22;5177;50.068;8.156;2023-03-01T03:41:48;1.20;99.90
10263;DHT22;5177;50.068;8.156;2023-03-01T03:44:13;1.20;99.90
10263;DHT22;5177;50.068;8.156;2023-03-01T03:46:39;1.10;99.90
10263;DHT22;5177;50.068;8.156;2023-03-01T03:49:04;1.10;99.90
10263;DHT22;5177;50.068;8.156;2023-03-01T03:51:30;1.00;99.90
10263;DHT22;5177;50.068;8.156;2023-03-01T03:53:55;1.00;99.90
10263;DHT22;5177;50.068;8.156;2023-03-01T03:56:21;1.00;99.90
10263;DHT22;5177;50.068;8.156;2023-03-01T03:58:54;1.00;99.90
10263;DHT22;5177;50.068;8.156;2023-03-01T04:01:19;1.00;99.90
10263;DHT22;5177;50.068;8.156;2023-03-01T04:03:44;1.00;99.90
10263;DHT22;5177;50.068;8.156;2023-03-01T04:06:13;1.00;99.90
10263;DHT22;5177;50.068;8.156;2023-03-01T04:08:39;1.00;99.90
10263;DHT22;5177;50.068;8.156;2023-03-01T04:11:05;1.00;99.90
10263;DHT22;5177;50.068;8.156;2023-03-01T04:13:50;1.00;99.90
10263;DHT22;5177;50.068;8.156;2023-03-01T04:16:16;1.00;99.90
10263;DHT22;5177;50.068;8.156;2023-03-01T04:18:42;1.00;99.90
10263;DHT22;5177;50.068;8.156;2023-03-01T04:21:08;1.00;99.90
10263;DHT22;5177;50.068;8.156;2023-03-01T04:23:33;1.10;99.90
10263;DHT22;5177;50.068;8.156;2023-03-01T04:26:00;1.00;99.90
10263;DHT22;5177;50.068;8.156;2023-03-01T04:31:01;1.00;99.90
10263;DHT22;5177;50.068;8.156;2023-03-01T04:33:30;1.00;99.90
10263;DHT22;5177;50.068;8.156;2023-03-01T04:35:55;1.00;99.90
10263;DHT22;5177;50.068;8.156;2023-03-01T04:38:22;1.00;99.90
10263;DHT22;5177;50.068;8.156;2023-03-01T04:40:48;1.00;99.90
10263;DHT22;5177;50.068;8.156;2023-03-01T04:43:13;1.00;99.90
10263;DHT22;5177;50.068;8.156;2023-03-01T04:45:42;1.00;99.90
10263;DHT22;5177;50.068;8.156;2023-03-01T04:48:08;1.00;99.90
10263;DHT22;5177;50.068;8.156;2023-03-01T04:50:34;1.00;99.90
10263;DHT22;5177;50.068;8.156;2023-03-01T04:53:00;1.00;99.90
10263;DHT22;5177;50.068;8.156;2023-03-01T04:55:26;1.00;99.90
10263;DHT22;5177;50.068;8.156;2023-03-01T04:57:51;1.00;99.90
10263;DHT22;5177;50.068;8.156;2023-03-01T05:00:18;1.00;99.90
10263;DHT22;5177;50.068;8.156;2023-03-01T05:02:53;1.00;99.90
10263;DHT22;5177;50.068;8.156;2023-03-01T05:05:26;1.00;99.90
10263;DHT22;5177;50.068;8.156;2023-03-01T05:07:53;1.00;99.90
10263;DHT22;5177;50.068;8.156;2023-03-01T05:10:18;1.00;99.90
10263;DHT22;5177;50.068;8.156;2023-03-01T05:12:44;1.00;99.90
10263;DHT22;5177;50.068;8.156;2023-03-01T05:15:09;1.00;99.90
10263;DHT22;5177;50.068;8.156;2023-03-01T05:17:35;1.00;99.90
10263;DHT22;5177;50.068;8.156;2023-03-01T05:20:01;1.00;99.90
10263;DHT22;5177;50.068;8.156;2023-03-01T05:22:28;1.00;99.90
10263;DHT22;5177;50.068;8.156;2023-03-01T05:24:54;1.00;99.90
10263;DHT22;5177;50.068;8.156;2023-03-01T05:27:20;1.00;99.90
10263;DHT22;5177;50.068;8.156;2023-03-01T05:29:47;1.00;99.90
10263;DHT22;5177;50.068;8.156;2023-03-01T05:32:13;0.90;99.90
10263;DHT22;5177;50.068;8.156;2023-03-01T05:34:40;0.90;99.90
10263;DHT22;5177;50.068;8.156;2023-03-01T05:37:06;0.90;99.90
10263;DHT22;5177;50.068;8.156;2023-03-01T05:39:32;0.90;99.90
10263;DHT22;5177;50.068;8.156;2023-03-01T05:41:59;0.80;99.90
10263;DHT22;5177;50.068;8.156;2023-03-01T05:44:24;0.80;99.90
10263;DHT22;5177;50.068;8.156;2023-03-01T05:46:50;0.80;99.90
10263;DHT22;5177;50.068;8.156;2023-03-01T05:49:16;0.80;99.90
10263;DHT22;5177;50.068;8.156;2023-03-01T05:51:42;0.70;99.90
10263;DHT22;5177;50.068;8.156;2023-03-01T05:54:08;0.70;99.90
10263;DHT22;5177;50.068;8.156;2023-03-01T05:56:34;0.70;99.90
10263;DHT22;5177;50.068;8.156;2023-03-01T05:59:00;0.70;99.90
10263;DHT22;5177;50.068;8.156;2023-03-01T06:01:26;0.80;99.90
10263;DHT22;5177;50.068;8.156;2023-03-01T06:03:52;0.80;99.90
10263;DHT22;5177;50.068;8.156;2023-03-01T06:06:17;0.80;99.90
10263;DHT22;5177;50.068;8.156;2023-03-01T06:08:43;0.80;99.90
10263;DHT22;5177;50.068;8.156;2023-03-01T06:11:08;0.80;99.90
10263;DHT22;5177;50.068;8.156;2023-03-01T06:13:34;0.90;99.90
10263;DHT22;5177;50.068;8.156;2023-03-01T06:15:59;0.90;99.90
10263;DHT22;5177;50.068;8.156;2023-03-01T06:18:25;0.90;99.90
10263;DHT22;5177;50.068;8.156;2023-03-01T06:20:54;1.00;99.90
10263;DHT22;5177;50.068;8.156;2023-03-01T06:23:19;1.00;99.90
10263;DHT22;5177;50.068;8.156;2023-03-01T06:25:45;1.00;99.90
10263;DHT22;5177;50.068;8.156;2023-03-01T06:28:11;1.10;99.90
10263;DHT22;5177;50.068;8.156;2023-03-01T06:30:36;1.20;99.90
10263;DHT22;5177;50.068;8.156;2023-03-01T06:33:02;1.20;99.90
10263;DHT22;5177;50.068;8.156;2023-03-01T06:35:28;1.30;99.90
10263;DHT22;5177;50.068;8.156;2023-03-01T06:37:56;1.30;99.90
10263;DHT22;5177;50.068;8.156;2023-03-01T06:40:22;1.30;99.90
10263;DHT22;5177;50.068;8.156;2023-03-01T06:42:48;1.50;99.90
10263;DHT22;5177;50.068;8.156;2023-03-01T06:45:14;1.60;99.90
10263;DHT22;5177;50.068;8.156;2023-03-01T06:47:40;1.60;99.90
10263;DHT22;5177;50.068;8.156;2023-03-01T06:50:05;1.60;99.90
10263;DHT22;5177;50.068;8.156;2023-03-01T06:52:31;1.60;99.90
10263;DHT22;5177;50.068;8.156;2023-03-01T06:54:56;1.80;99.90
10263;DHT22;5177;50.068;8.156;2023-03-01T06:57:22;1.80;99.90
10263;DHT22;5177;50.068;8.156;2023-03-01T06:59:47;1.90;99.90
10263;DHT22;5177;50.068;8.156;2023-03-01T07:02:13;1.80;99.90
10263;DHT22;5177;50.068;8.156;2023-03-01T07:04:40;1.80;99.90
10263;DHT22;5177;50.068;8.156;2023-03-01T07:07:05;1.80;99.90
10263;DHT22;5177;50.068;8.156;2023-03-01T07:09:31;1.90;99.90
10263;DHT22;5177;50.068;8.156;2023-03-01T07:11:57;2.00;99.90
10263;DHT22;5177;50.068;8.156;2023-03-01T07:14:22;1.90;99.90
10263;DHT22;5177;50.068;8.156;2023-03-01T07:16:51;1.90;99.90
10263;DHT22;5177;50.068;8.156;2023-03-01T07:19:16;1.90;99.90
10263;DHT22;5177;50.068;8.156;2023-03-01T07:21:41;1.90;99.90
10263;DHT22;5177;50.068;8.156;2023-03-01T07:24:07;2.00;99.90
10263;DHT22;5177;50.068;8.156;2023-03-01T07:26:33;2.00;99.90
10263;DHT22;5177;50.068;8.156;2023-03-01T07:28:59;2.10;99.90
10263;DHT22;5177;50.068;8.156;2023-03-01T07:31:25;2.20;99.90
10263;DHT22;5177;50.068;8.156;2023-03-01T07:33:53;2.30;99.90
10263;DHT22;5177;50.068;8.156;2023-03-01T07:36:18;2.40;99.90
10263;DHT22;5177;50.068;8.156;2023-03-01T07:38:44;2.50;99.90
10263;DHT22;5177;50.068;8.156;2023-03-01T07:41:09;2.50;99.90
10263;DHT22;5177;50.068;8.156;2023-03-01T07:43:35;2.70;99.90
10263;DHT22;5177;50.068;8.156;2023-03-01T07:46:01;2.80;99.90
10263;DHT22;5177;50.068;8.156;2023-03-01T07:48:27;2.90;99.90
10263;DHT22;5177;50.068;8.156;2023-03-01T07:50:52;3.00;99.90
10263;DHT22;5177;50.068;8.156;2023-03-01T07:53:18;3.20;99.90
10263;DHT22;5177;50.068;8.156;2023-03-01T07:55:43;3.20;99.90
10263;DHT22;5177;50.068;8.156;2023-03-01T07:58:09;3.30;99.90
10263;DHT22;5177;50.068;8.156;2023-03-01T08:00:34;3.50;99.90
10263;DHT22;5177;50.068;8.156;2023-03-01T08:03:00;3.60;99.90
10263;DHT22;5177;50.068;8.156;2023-03-01T08:05:26;3.70;99.90
10263;DHT22;5177;50.068;8.156;2023-03-01T08:07:52;3.90;99.90
10263;DHT22;5177;50.068;8.156;2023-03-01T08:10:17;4.00;99.90
10263;DHT22;5177;50.068;8.156;2023-03-01T08:12:43;4.10;99.90
10263;DHT22;5177;50.068;8.156;2023-03-01T08:15:08;4.10;99.90
10263;DHT22;5177;50.068;8.156;2023-03-01T08:17:34;4.20;99.90
10263;DHT22;5177;50.068;8.156;2023-03-01T08:19:59;4.30;99.90
10263;DHT22;5177;50.068;8.156;2023-03-01T08:22:25;4.40;99.90
10263;DHT22;5177;50.068;8.156;2023-03-01T08:24:50;4.50;99.90
10263;DHT22;5177;50.068;8.156;2023-03-01T08:27:16;4.70;99.90
10263;DHT22;5177;50.068;8.156;2023-03-01T08:29:41;4.80;99.90
10263;DHT22;5177;50.068;8.156;2023-03-01T08:32:07;5.00;99.90
10263;DHT22;5177;50.068;8.156;2023-03-01T08:34:33;4.90;99.90
10263;DHT22;5177;50.068;8.156;2023-03-01T08:37:00;4.90;99.90
10263;DHT22;5177;50.068;8.156;2023-03-01T08:39:26;5.00;99.90
10263;DHT22;5177;50.068;8.156;2023-03-01T08:41:52;5.00;99.90
10263;DHT22;5177;50.068;8.156;2023-03-01T08:44:17;5.20;99.90
10263;DHT22;5177;50.068;8.156;2023-03-01T08:46:43;5.40;99.90
10263;DHT22;5177;50.068;8.156;2023-03-01T08:49:13;5.60;99.90
10263;DHT22;5177;50.068;8.156;2023-03-01T08:51:39;5.50;99.90
10263;DHT22;5177;50.068;8.156;2023-03-01T08:54:06;5.40;99.90
10263;DHT22;5177;50.068;8.156;2023-03-01T08:56:32;5.50;99.90
10263;DHT22;5177;50.068;8.156;2023-03-01T08:58:57;5.50;99.90
10263;DHT22;5177;50.068;8.156;2023-03-01T09:01:23;5.60;99.90
10263;DHT22;5177;50.068;8.156;2023-03-01T09:03:48;5.80;99.90
10263;DHT22;5177;50.068;8.156;2023-03-01T09:06:14;6.00;99.90
10263;DHT22;5177;50.068;8.156;2023-03-01T09:08:40;6.00;99.90
10263;DHT22;5177;50.068;8.156;2023-03-01T09:11:07;6.10;99.90
10263;DHT22;5177;50.068;8.156;2023-03-01T09:13:32;6.20;99.90
10263;DHT22;5177;50.068;8.156;2023-03-01T09:15:59;6.30;99.90
10263;DHT22;5177;50.068;8.156;2023-03-01T09:18:25;6.40;99.90
10263;DHT22;5177;50.068;8.156;2023-03-01T09:20:51;6.80;99.90
10263;DHT22;5177;50.068;8.156;2023-03-01T09:23:16;6.90;99.90
10263;DHT22;5177;50.068;8.156;2023-03-01T09:25:42;6.90;99.90
10263;DHT22;5177;50.068;8.156;2023-03-01T09:28:07;7.00;99.90
10263;DHT22;5177;50.068;8.156;2023-03-01T09:30:33;7.00;99.90
10263;DHT22;5177;50.068;8.156;2023-03-01T09:33:00;7.10;99.90
10263;DHT22;5177;50.068;8.156;2023-03-01T09:35:25;7.10;99.90
10263;DHT22;5177;50.068;8.156;2023-03-01T09:37:51;7.20;99.90
10263;DHT22;5177;50.068;8.156;2023-03-01T09:40:17;7.20;99.90
10263;DHT22;5177;50.068;8.156;2023-03-01T09:45:19;7.20;99.90
10263;DHT22;5177;50.068;8.156;2023-03-01T09:47:46;7.20;99.90
10263;DHT22;5177;50.068;8.156;2023-03-01T09:52:43;7.40;99.90
10263;DHT22;5177;50.068;8.156;2023-03-01T09:55:12;7.50;99.90
10263;DHT22;5177;50.068;8.156;2023-03-01T09:57:49;7.60;99.90
10263;DHT22;5177;50.068;8.156;2023-03-01T10:00:21;7.80;99.90
10263;DHT22;5177;50.068;8.156;2023-03-01T10:03:03;7.80;99.90
10263;DHT22;5177;50.068;8.156;2023-03-01T10:05:36;7.90;99.90
10263;DHT22;5177;50.068;8.156;2023-03-01T10:08:24;7.90;99.90
10263;DHT22;5177;50.068;8.156;2023-03-01T10:10:50;8.00;99.90
10263;DHT22;5177;50.068;8.156;2023-03-01T10:13:21;8.00;99.90
10263;DHT22;5177;50.068;8.156;2023-03-01T10:15:50;8.10;99.90
10263;DHT22;5177;50.068;8.156;2023-03-01T10:18:26;8.00;99.90
10263;DHT22;5177;50.068;8.156;2023-03-01T10:20:58;7.90;99.90
10263;DHT22;5177;50.068;8.156;2023-03-01T10:23:24;7.90;99.90
10263;DHT22;5177;50.068;8.156;2023-03-01T10:31:00;8.10;99.90
10263;DHT22;5177;50.068;8.156;2023-03-01T10:33:35;8.00;99.90
10263;DHT22;5177;50.068;8.156;2023-03-01T10:36:02;8.10;99.90
10263;DHT22;5177;50.068;8.156;2023-03-01T10:38:30;8.00;99.90
10263;DHT22;5177;50.068;8.156;2023-03-01T10:41:06;7.90;99.90
10263;DHT22;5177;50.068;8.156;2023-03-01T10:43:40;8.10;99.90
10263;DHT22;5177;50.068;8.156;2023-03-01T10:48:55;8.40;99.90
10263;DHT22;5177;50.068;8.156;2023-03-01T10:51:30;8.30;99.90
10263;DHT22;5177;50.068;8.156;2023-03-01T10:53:55;8.30;99.90
10263;DHT22;5177;50.068;8.156;2023-03-01T10:56:21;8.30;99.90
10263;DHT22;5177;50.068;8.156;2023-03-01T10:58:57;8.40;99.90
10263;DHT22;5177;50.068;8.156;2023-03-01T11:04:03;8.50;99.90
10263;DHT22;5177;50.068;8.156;2023-03-01T11:06:34;8.70;99.90
10263;DHT22;5177;50.068;8.156;2023-03-01T11:09:13;8.80;99.90
10263;DHT22;5177;50.068;8.156;2023-03-01T11:11:39;8.80;99.90
10263;DHT22;5177;50.068;8.156;2023-03-01T11:14:13;9.00;99.90
10263;DHT22;5177;50.068;8.156;2023-03-01T11:16:41;9.00;99.90
10263;DHT22;5177;50.068;8.156;2023-03-01T11:24:19;9.10;99.90
10263;DHT22;5177;50.068;8.156;2023-03-01T11:26:50;9.10;99.90
10263;DHT22;5177;50.068;8.156;2023-03-01T11:31:51;9.10;99.90
10263;DHT22;5177;50.068;8.156;2023-03-01T11:34:19;9.10;99.90
10263;DHT22;5177;50.068;8.156;2023-03-01T11:36:51;9.10;99.90
10263;DHT22;5177;50.068;8.156;2023-03-01T11:41:44;9.40;99.90
10263;DHT22;5177;50.068;8.156;2023-03-01T11:44:14;9.50;99.90
10263;DHT22;5177;50.068;8.156;2023-03-01T11:47:07;9.60;99.90
10263;DHT22;5177;50.068;8.156;2023-03-01T11:49:44;9.80;99.90
10263;DHT22;5177;50.068;8.156;2023-03-01T11:55:04;9.90;99.90
10263;DHT22;5177;50.068;8.156;2023-03-01T12:10:51;10.20;95.70
10263;DHT22;5177;50.068;8.156;2023-03-01T12:18:54;10.50;94.40
10263;DHT22;5177;50.068;8.156;2023-03-01T12:24:10;10.50;90.40
10263;DHT22;5177;50.068;8.156;2023-03-01T12:26:47;10.30;90.50
10263;DHT22;5177;50.068;8.156;2023-03-01T12:34:28;10.80;91.00
10263;DHT22;5177;50.068;8.156;2023-03-01T12:39:47;10.80;87.20
10263;DHT22;5177;50.068;8.156;2023-03-01T12:47:23;10.80;82.50
10263;DHT22;5177;50.068;8.156;2023-03-01T12:49:56;10.90;80.40
10263;DHT22;5177;50.068;8.156;2023-03-01T12:52:44;10.80;80.40
10263;DHT22;5177;50.068;8.156;2023-03-01T12:55:16;10.80;79.40
10263;DHT22;5177;50.068;8.156;2023-03-01T12:57:47;10.80;78.40
10263;DHT22;5177;50.068;8.156;2023-03-01T13:03:12;11.00;76.30
10263;DHT22;5177;50.068;8.156;2023-03-01T13:05:42;11.00;74.80
10263;DHT22;5177;50.068;8.156;2023-03-01T13:08:17;11.00;78.50
10263;DHT22;5177;50.068;8.156;2023-03-01T13:13:23;11.00;74.50
10263;DHT22;5177;50.068;8.156;2023-03-01T13:15:49;11.20;72.80
10263;DHT22;5177;50.068;8.156;2023-03-01T13:23:24;11.50;69.80
10263;DHT22;5177;50.068;8.156;2023-03-01T13:28:36;11.60;66.70
10263;DHT22;5177;50.068;8.156;2023-03-01T13:31:04;11.60;64.60
10263;DHT22;5177;50.068;8.156;2023-03-01T13:35:56;11.70;63.80
10263;DHT22;5177;50.068;8.156;2023-03-01T13:41:06;11.60;61.90
10263;DHT22;5177;50.068;8.156;2023-03-01T13:43:32;11.90;61.80
10263;DHT22;5177;50.068;8.156;2023-03-01T13:45:59;11.80;60.40
10263;DHT22;5177;50.068;8.156;2023-03-01T13:48:27;11.90;59.20
10263;DHT22;5177;50.068;8.156;2023-03-01T13:51:00;11.90;59.80
10263;DHT22;5177;50.068;8.156;2023-03-01T13:53:29;11.90;59.80
10263;DHT22;5177;50.068;8.156;2023-03-01T13:55:55;11.80;59.10
10263;DHT22;5177;50.068;8.156;2023-03-01T13:58:22;11.70;60.20
10263;DHT22;5177;50.068;8.156;2023-03-01T14:00:54;11.70;59.50
10263;DHT22;5177;50.068;8.156;2023-03-01T14:03:20;11.80;59.70
10263;DHT22;5177;50.068;8.156;2023-03-01T14:08:27;12.00;59.90
10263;DHT22;5177;50.068;8.156;2023-03-01T14:11:03;12.00;58.40
10263;DHT22;5177;50.068;8.156;2023-03-01T14:16:24;12.50;57.70
10263;DHT22;5177;50.068;8.156;2023-03-01T14:19:06;12.40;56.50
10263;DHT22;5177;50.068;8.156;2023-03-01T14:21:34;12.40;57.10
10263;DHT22;5177;50.068;8.156;2023-03-01T14:24:01;12.50;56.70
10263;DHT22;5177;50.068;8.156;2023-03-01T14:26:27;12.60;56.40
10263;DHT22;5177;50.068;8.156;2023-03-01T14:28:53;12.80;54.80
10263;DHT22;5177;50.068;8.156;2023-03-01T14:33:56;12.60;55.00
10263;DHT22;5177;50.068;8.156;2023-03-01T14:36:25;12.60;54.70
10263;DHT22;5177;50.068;8.156;2023-03-01T14:38:51;12.40;54.00
10263;DHT22;5177;50.068;8.156;2023-03-01T14:41:17;12.60;54.90
10263;DHT22;5177;50.068;8.156;2023-03-01T14:43:50;12.80;54.00
10263;DHT22;5177;50.068;8.156;2023-03-01T14:46:17;12.70;53.00
10263;DHT22;5177;50.068;8.156;2023-03-01T14:48:42;12.70;54.20
10263;DHT22;5177;50.068;8.156;2023-03-01T14:51:09;12.40;54.10
10263;DHT22;5177;50.068;8.156;2023-03-01T14:53:36;12.50;54.40
10263;DHT22;5177;50.068;8.156;2023-03-01T14:56:01;12.50;53.90
10263;DHT22;5177;50.068;8.156;2023-03-01T14:58:31;12.30;53.50
10263;DHT22;5177;50.068;8.156;2023-03-01T15:01:01;12.20;53.50
10263;DHT22;5177;50.068;8.156;2023-03-01T15:03:30;12.20;52.50
10263;DHT22;5177;50.068;8.156;2023-03-01T15:05:56;12.00;52.20
10263;DHT22;5177;50.068;8.156;2023-03-01T15:08:25;11.90;52.10
10263;DHT22;5177;50.068;8.156;2023-03-01T15:11:02;11.70;52.80
10263;DHT22;5177;50.068;8.156;2023-03-01T15:13:32;11.60;52.40
10263;DHT22;5177;50.068;8.156;2023-03-01T15:16:11;11.30;53.90
10263;DHT22;5177;50.068;8.156;2023-03-01T15:18:37;11.80;54.00
10263;DHT22;5177;50.068;8.156;2023-03-01T15:21:13;12.60;51.50
10263;DHT22;5177;50.068;8.156;2023-03-01T15:23:40;12.80;50.60
10263;DHT22;5177;50.068;8.156;2023-03-01T15:26:06;12.20;50.60
10263;DHT22;5177;50.068;8.156;2023-03-01T15:28:37;11.40;52.50
10263;DHT22;5177;50.068;8.156;2023-03-01T15:31:18;10.80;52.90
10263;DHT22;5177;50.068;8.156;2023-03-01T15:33:44;10.30;54.80
10263;DHT22;5177;50.068;8.156;2023-03-01T15:38:58;9.70;58.90
10263;DHT22;5177;50.068;8.156;2023-03-01T15:41:26;9.50;61.10
10263;DHT22;5177;50.068;8.156;2023-03-01T15:43:52;9.40;61.80
10263;DHT22;5177;50.068;8.156;2023-03-01T15:46:25;9.30;63.20
10263;DHT22;5177;50.068;8.156;2023-03-01T15:48:53;9.10;63.90
10263;DHT22;5177;50.068;8.156;2023-03-01T15:51:42;9.00;65.40
10263;DHT22;5177;50.068;8.156;2023-03-01T15:54:12;9.00;66.30
10263;DHT22;5177;50.068;8.156;2023-03-01T15:56:41;8.90;66.10
10263;DHT22;5177;50.068;8.156;2023-03-01T15:59:08;8.70;67.50
10263;DHT22;5177;50.068;8.156;2023-03-01T16:01:36;8.60;68.40
10263;DHT22;5177;50.068;8.156;2023-03-01T16:04:02;8.60;69.40
10263;DHT22;5177;50.068;8.156;2023-03-01T16:06:27;8.50;70.90
10263;DHT22;5177;50.068;8.156;2023-03-01T16:08:53;8.50;72.00
10263;DHT22;5177;50.068;8.156;2023-03-01T16:11:19;8.40;72.80
10263;DHT22;5177;50.068;8.156;2023-03-01T16:13:44;8.30;74.00
10263;DHT22;5177;50.068;8.156;2023-03-01T16:16:11;8.40;75.40
10263;DHT22;5177;50.068;8.156;2023-03-01T16:18:44;8.40;75.40
10263;DHT22;5177;50.068;8.156;2023-03-01T16:21:12;8.30;76.30
10263;DHT22;5177;50.068;8.156;2023-03-01T16:23:37;8.30;77.20
10263;DHT22;5177;50.068;8.156;2023-03-01T16:26:03;8.20;78.80
10263;DHT22;5177;50.068;8.156;2023-03-01T16:28:28;8.10;80.60
10263;DHT22;5177;50.068;8.156;2023-03-01T16:30:54;8.10;82.10
10263;DHT22;5177;50.068;8.156;2023-03-01T16:33:19;8.00;84.10
10263;DHT22;5177;50.068;8.156;2023-03-01T16:35:45;7.90;84.80
10263;DHT22;5177;50.068;8.156;2023-03-01T16:38:11;7.90;85.70
10263;DHT22;5177;50.068;8.156;2023-03-01T16:40:36;7.90;86.10
10263;DHT22;5177;50.068;8.156;2023-03-01T16:43:02;7.80;87.50
10263;DHT22;5177;50.068;8.156;2023-03-01T16:45:29;7.80;88.10
10263;DHT22;5177;50.068;8.156;2023-03-01T16:47:58;7.60;88.40
10263;DHT22;5177;50.068;8.156;2023-03-01T16:50:24;7.50;90.20
10263;DHT22;5177;50.068;8.156;2023-03-01T16:52:50;7.50;90.50
10263;DHT22;5177;50.068;8.156;2023-03-01T16:55:15;7.40;91.30
10263;DHT22;5177;50.068;8.156;2023-03-01T16:57:41;7.40;91.60
10263;DHT22;5177;50.068;8.156;2023-03-01T17:00:07;7.30;91.30
10263;DHT22;5177;50.068;8.156;2023-03-01T17:02:37;7.30;91.70
10263;DHT22;5177;50.068;8.156;2023-03-01T17:05:02;7.20;92.10
10263;DHT22;5177;50.068;8.156;2023-03-01T17:07:31;7.10;92.00
10263;DHT22;5177;50.068;8.156;2023-03-01T17:10:00;7.00;92.80
10263;DHT22;5177;50.068;8.156;2023-03-01T17:12:25;7.00;93.30
10263;DHT22;5177;50.068;8.156;2023-03-01T17:14:51;6.80;94.30
10263;DHT22;5177;50.068;8.156;2023-03-01T17:17:16;6.90;94.20
10263;DHT22;5177;50.068;8.156;2023-03-01T17:19:42;6.80;94.70
10263;DHT22;5177;50.068;8.156;2023-03-01T17:22:11;6.80;94.70
10263;DHT22;5177;50.068;8.156;2023-03-01T17:24:38;6.70;95.20
10263;DHT22;5177;50.068;8.156;2023-03-01T17:27:04;6.70;95.40
10263;DHT22;5177;50.068;8.156;2023-03-01T17:29:30;6.60;95.40
10263;DHT22;5177;50.068;8.156;2023-03-01T17:31:55;6.60;95.40
10263;DHT22;5177;50.068;8.156;2023-03-01T17:34:21;6.50;95.20
10263;DHT22;5177;50.068;8.156;2023-03-01T17:36:47;6.50;95.70
10263;DHT22;5177;50.068;8.156;2023-03-01T17:39:15;6.40;95.90
10263;DHT22;5177;50.068;8.156;2023-03-01T17:41:40;6.40;97.00
10263;DHT22;5177;50.068;8.156;2023-03-01T17:44:06;6.30;96.40
10263;DHT22;5177;50.068;8.156;2023-03-01T17:46:31;6.30;96.80
10263;DHT22;5177;50.068;8.156;2023-03-01T17:48:57;6.20;96.70